Pagrindinis puslapis
METAR-TAF:

METAR-TAF

Oro uostai :

Memmingen, Vokietija

platuma: 47-59-33N, ilguma: 10-14-37E, Aukštis: 633 m

Dabartinis oras

Ataskaita buvo paskelbta 22 minutes, ne 21:20 UTC
Vėjas 10 kt iš Pietvakarių
Temperatūra 5°C
Drėgmė 75%
Slėgis 1007 hPa
Matomumas 10 km arba daugiau

METAR: EDJA 272120Z AUTO 22010KT 9999 // OVC084/// 05/01 Q1007

Laikas: 22:42 (21:42 UTC)

Prognozė

Ataskaita buvo paskelbta 4 valandos ir 42 minutes, ne 17:00 UTC
Prognozė galioja nuo 27 metu 18 UTC su 28 metu 03 UTC
Vėjas 6 kt iš Pietų/Pietvakarių
Matomumas 10 km arba daugiau
Mažai debesys ne aukštis 4500 ft
Tikimybė 30% :
Laikinai
nuo 28 metu 00 UTC su 28 metu 03 UTC
Matomumas: 4500 m
Su prošvaistėmis ne aukštis 1200 ft
lietus

TAF: EDJA 271700Z 2718/2803 20006KT 9999 FEW045 PROB30 TEMPO 2800/2803 4500 RA BKN012

Orai ataskaitas ir orų prognozės (METAR, TAF).

turimą stotys yra geltonos ir raudonos taškus žemėlapyje.

Perkelti pele per norėdami pamatyti stoties vardą.

Tada spustelėkite, norėdami matyti oro stebėjimo ir prognozės.

Norėdami pakeisti žemėlapį: spustelėkite ant žalios mygtukų su juodo kryžiaus žemyn,; žalią mygtuką su brūkšneliu, jei norite nutolinti; arba žalių rodyklių gretimoms žemėlapius.


METAR-TAF: